Time;durP1;ratioP1;P1;durP2;ratioP2;P2;SDS_P1;SDS_P2;PMS_P1;PMS_P2;Temp;Humidity;BMP_temperature;BMP_pressure;BME280_temperature;BME280_humidity;BME280_pressure;Samples;Min_cycle;Max_cycle;Signal;HPM_P1;HPM_P2
2023/06/07 00:00:00;;;;;;;11.63;11.13;;;18.70;99.90;;;;;;5037360;28;20463;-67
2023/06/07 00:02:27;;;;;;;11.40;11.00;;;18.70;99.90;;;;;;5043903;28;20467;-67
2023/06/07 00:04:55;;;;;;;11.67;11.27;;;18.70;99.90;;;;;;5041286;28;20580;-67
2023/06/07 00:07:22;;;;;;;12.13;11.63;;;18.70;99.90;;;;;;5045759;28;20455;-67
2023/06/07 00:09:50;;;;;;;12.57;12.00;;;18.70;99.90;;;;;;5037738;28;20491;-68
2023/06/07 00:12:16;;;;;;;11.53;11.03;;;18.70;99.90;;;;;;5042262;28;20476;-67
2023/06/07 00:14:45;;;;;;;10.97;10.57;;;18.70;99.90;;;;;;5037523;28;20877;-67
2023/06/07 00:17:15;;;;;;;12.80;12.10;;;18.70;99.90;;;;;;5049408;28;20471;-67
2023/06/07 00:19:44;;;;;;;11.90;11.40;;;18.60;99.90;;;;;;5045148;28;20499;-68
2023/06/07 00:22:12;;;;;;;12.87;12.17;;;18.50;99.90;;;;;;5045236;28;20500;-66
2023/06/07 00:24:39;;;;;;;12.30;11.80;;;18.40;99.90;;;;;;5034481;28;20459;-67
2023/06/07 00:27:06;;;;;;;12.00;11.53;;;18.40;99.90;;;;;;5046129;28;20962;-67
2023/06/07 00:29:33;;;;;;;11.60;11.20;;;18.40;99.90;;;;;;5038003;28;20822;-68
2023/06/07 00:32:02;;;;;;;11.80;11.40;;;18.40;99.90;;;;;;5042601;28;20507;-67
2023/06/07 00:34:30;;;;;;;12.93;12.33;;;18.40;99.90;;;;;;5050061;28;20484;-68
2023/06/07 00:36:58;;;;;;;11.97;11.57;;;18.40;99.90;;;;;;5036375;28;20464;-68
2023/06/07 00:39:25;;;;;;;11.90;11.40;;;18.30;99.90;;;;;;5046588;28;20468;-67
2023/06/07 00:41:52;;;;;;;12.20;11.70;;;18.40;99.90;;;;;;5049786;28;20462;-67
2023/06/07 00:44:19;;;;;;;12.97;12.43;;;18.40;99.90;;;;;;5044083;28;20468;-68
2023/06/07 00:46:47;;;;;;;12.37;11.87;;;18.40;99.90;;;;;;5048594;28;20637;-67
2023/06/07 00:49:16;;;;;;;12.20;11.70;;;18.40;99.90;;;;;;5047859;28;20456;-67
2023/06/07 00:51:46;;;;;;;12.97;12.37;;;18.40;99.90;;;;;;5041751;28;20580;-68
2023/06/07 00:54:17;;;;;;;12.27;11.57;;;18.30;99.90;;;;;;5038959;28;20993;-67
2023/06/07 00:56:45;;;;;;;11.50;11.10;;;18.30;99.90;;;;;;5041477;28;20461;-68
2023/06/07 00:59:13;;;;;;;12.17;11.67;;;18.20;99.90;;;;;;5041169;28;20475;-67
2023/06/07 01:01:41;;;;;;;17.97;12.00;;;18.20;99.90;;;;;;5040871;28;20478;-68
2023/06/07 01:04:10;;;;;;;13.53;12.93;;;18.10;99.90;;;;;;5043818;28;20466;-67
2023/06/07 01:06:38;;;;;;;13.17;12.57;;;18.10;99.90;;;;;;5043441;28;20461;-67
2023/06/07 01:09:06;;;;;;;12.40;11.90;;;18.10;99.90;;;;;;5043786;28;20928;-68
2023/06/07 01:11:34;;;;;;;12.77;12.27;;;18.10;99.90;;;;;;5040312;28;21002;-67
2023/06/07 01:14:03;;;;;;;11.97;11.47;;;18.00;99.90;;;;;;5037295;28;20579;-67
2023/06/07 01:16:30;;;;;;;12.40;11.90;;;18.00;99.90;;;;;;5050156;28;20895;-67
2023/06/07 01:18:57;;;;;;;11.50;11.10;;;18.00;99.90;;;;;;5044981;28;20464;-67
2023/06/07 01:21:25;;;;;;;13.67;11.80;;;18.00;99.90;;;;;;5037405;28;20502;-68
2023/06/07 01:23:56;;;;;;;11.37;10.97;;;18.00;99.90;;;;;;5033654;28;20456;-68
2023/06/07 01:26:26;;;;;;;12.77;12.17;;;17.90;99.90;;;;;;5040956;28;20954;-67
2023/06/07 01:28:55;;;;;;;11.50;11.10;;;17.80;99.90;;;;;;5036278;28;20962;-66
2023/06/07 01:31:23;;;;;;;10.57;10.17;;;17.70;99.90;;;;;;5030086;28;21058;-67
2023/06/07 01:33:51;;;;;;;10.90;10.50;;;17.60;99.90;;;;;;5042054;28;20480;-67
2023/06/07 01:36:18;;;;;;;11.73;11.10;;;17.50;99.90;;;;;;5037390;28;20501;-67
2023/06/07 01:38:46;;;;;;;11.63;11.13;;;17.40;99.90;;;;;;5043466;28;20464;-67
2023/06/07 01:41:16;;;;;;;11.60;11.10;;;17.30;99.90;;;;;;5038517;28;20486;-67
2023/06/07 01:43:44;;;;;;;11.13;10.73;;;17.30;99.90;;;;;;5039416;28;20515;-68
2023/06/07 01:46:12;;;;;;;10.13;9.73;;;17.10;99.90;;;;;;5044845;28;20521;-67
2023/06/07 01:48:39;;;;;;;88.37;12.60;;;17.00;99.90;;;;;;5043509;28;20463;-66
2023/06/07 01:51:07;;;;;;;9.90;9.50;;;16.90;99.90;;;;;;5042739;28;20464;-67
2023/06/07 01:53:35;;;;;;;10.60;10.20;;;16.80;99.90;;;;;;5042875;28;20460;-67
2023/06/07 01:56:09;;;;;;;12.10;11.40;;;16.70;99.90;;;;;;5041188;28;20831;-67
2023/06/07 01:58:48;;;;;;;11.20;10.60;;;16.60;99.90;;;;;;5046857;28;20456;-66
2023/06/07 02:01:31;;;;;;;10.60;10.20;;;16.50;99.90;;;;;;5040069;28;20855;-67
2023/06/07 02:04:01;;;;;;;9.33;9.03;;;16.40;99.90;;;;;;5033768;28;20829;-67
2023/06/07 02:06:31;;;;;;;9.97;9.57;;;16.40;99.90;;;;;;5042515;28;20483;-67
2023/06/07 02:09:04;;;;;;;9.23;8.93;;;16.20;99.90;;;;;;5041632;28;20461;-66
2023/06/07 02:11:32;;;;;;;12.27;11.63;;;16.20;99.90;;;;;;5037281;28;20472;-66
2023/06/07 02:14:01;;;;;;;8.70;8.40;;;16.10;99.90;;;;;;5038780;28;20870;-67
2023/06/07 02:16:36;;;;;;;9.23;8.93;;;16.10;99.90;;;;;;5044980;28;20805;-68
2023/06/07 02:19:06;;;;;;;9.00;8.70;;;16.00;99.90;;;;;;5040326;28;20827;-67
2023/06/07 02:21:34;;;;;;;8.53;8.23;;;15.90;99.90;;;;;;5041956;28;20455;-67
2023/06/07 02:24:01;;;;;;;8.50;8.20;;;15.90;99.90;;;;;;5043186;28;21060;-67
2023/06/07 02:26:29;;;;;;;8.17;7.87;;;15.80;99.90;;;;;;5032429;28;20468;-67
2023/06/07 02:28:56;;;;;;;9.53;9.13;;;15.70;99.90;;;;;;5035680;28;20460;-67
2023/06/07 02:31:25;;;;;;;8.67;8.37;;;15.60;99.90;;;;;;5037769;28;20478;-67
2023/06/07 02:33:52;;;;;;;8.77;8.47;;;15.50;99.90;;;;;;5033697;28;20481;-67
2023/06/07 02:36:24;;;;;;;8.90;8.60;;;15.20;99.90;;;;;;5045019;28;20460;-66
2023/06/07 02:38:52;;;;;;;8.60;8.30;;;15.00;99.90;;;;;;5042757;28;20474;-67
2023/06/07 02:41:19;;;;;;;9.20;8.90;;;14.90;99.90;;;;;;5039105;28;20452;-67
2023/06/07 02:43:46;;;;;;;8.80;8.50;;;14.80;99.90;;;;;;5044381;28;20472;-67
2023/06/07 02:46:14;;;;;;;8.63;8.33;;;14.70;99.90;;;;;;5045470;28;20456;-67
2023/06/07 02:48:42;;;;;;;8.83;8.53;;;14.50;99.90;;;;;;5035585;28;20464;-67
2023/06/07 02:51:08;;;;;;;8.93;8.63;;;14.40;99.90;;;;;;5034468;28;20947;-67
2023/06/07 02:53:37;;;;;;;8.50;8.20;;;14.40;99.90;;;;;;5035298;28;20496;-67
2023/06/07 02:56:04;;;;;;;8.97;8.67;;;14.30;99.90;;;;;;5035920;28;20472;-67
2023/06/07 02:58:33;;;;;;;8.70;8.40;;;14.20;99.90;;;;;;5042624;28;20467;-67
2023/06/07 03:01:00;;;;;;;7.93;7.63;;;14.20;99.90;;;;;;5043816;28;20518;-67
2023/06/07 03:03:27;;;;;;;7.60;7.40;;;14.10;99.90;;;;;;5040041;28;20861;-66
2023/06/07 03:05:59;;;;;;;7.30;7.10;;;14.10;99.90;;;;;;5040916;28;20471;-67
2023/06/07 03:08:26;;;;;;;7.40;7.20;;;14.10;99.90;;;;;;5030709;28;20464;-67
2023/06/07 03:10:54;;;;;;;7.60;7.40;;;14.10;99.90;;;;;;5037572;28;20455;-67
2023/06/07 03:13:20;;;;;;;6.80;6.60;;;14.10;99.90;;;;;;5046199;28;20488;-66
2023/06/07 03:15:47;;;;;;;7.10;6.90;;;14.10;99.90;;;;;;5037187;28;20460;-67
2023/06/07 03:18:15;;;;;;;7.20;7.00;;;14.00;99.90;;;;;;5044005;28;20551;-66
2023/06/07 03:20:43;;;;;;;7.33;7.13;;;14.00;99.90;;;;;;5041366;28;20492;-68
2023/06/07 03:23:11;;;;;;;7.43;7.23;;;14.20;99.90;;;;;;5033691;28;20463;-66
2023/06/07 03:25:40;;;;;;;6.80;6.60;;;14.30;99.90;;;;;;5036563;28;20534;-67
2023/06/07 03:28:07;;;;;;;16.47;15.57;;;14.40;99.90;;;;;;5043374;28;20501;-66
2023/06/07 03:30:34;;;;;;;7.77;7.47;;;14.50;99.90;;;;;;5039132;28;20452;-67
2023/06/07 03:33:01;;;;;;;6.60;6.40;;;14.60;99.90;;;;;;5037054;28;20580;-67
2023/06/07 03:35:28;;;;;;;7.37;7.17;;;14.60;99.90;;;;;;5032946;28;20484;-67
2023/06/07 03:37:55;;;;;;;8.00;7.73;;;14.80;99.90;;;;;;5043846;28;20988;-67
2023/06/07 03:40:24;;;;;;;12.97;11.63;;;14.90;99.90;;;;;;5040183;28;20873;-67
2023/06/07 03:42:50;;;;;;;7.73;7.23;;;15.00;99.90;;;;;;5039344;28;20467;-68
2023/06/07 03:45:18;;;;;;;7.07;6.77;;;15.10;99.90;;;;;;5034684;28;20460;-67
2023/06/07 03:47:45;;;;;;;6.50;6.30;;;15.20;99.90;;;;;;5046614;28;20464;-65
2023/06/07 03:50:13;;;;;;;7.50;7.20;;;15.20;99.90;;;;;;5039125;28;20472;-67
2023/06/07 03:52:40;;;;;;;8.20;7.90;;;15.20;99.90;;;;;;5040251;28;20484;-67
2023/06/07 03:55:08;;;;;;;7.47;7.27;;;15.40;99.90;;;;;;5035004;28;20468;-67
2023/06/07 03:57:36;;;;;;;8.00;7.60;;;15.40;99.90;;;;;;5045819;28;20817;-67
2023/06/07 04:00:06;;;;;;;7.40;7.20;;;15.40;99.90;;;;;;5036612;28;20457;-67
2023/06/07 04:02:34;;;;;;;9.33;8.83;;;15.50;99.90;;;;;;5036371;28;20471;-66
2023/06/07 04:05:01;;;;;;;8.17;7.77;;;15.60;99.90;;;;;;5041147;28;20571;-67
2023/06/07 04:07:28;;;;;;;8.40;8.03;;;15.70;99.90;;;;;;5038103;28;20456;-67
2023/06/07 04:09:55;;;;;;;8.03;7.73;;;15.70;99.90;;;;;;5033861;28;20460;-68
2023/06/07 04:12:23;;;;;;;8.43;8.13;;;15.80;99.90;;;;;;5029702;28;20551;-67
2023/06/07 04:14:52;;;;;;;9.47;9.07;;;15.80;99.90;;;;;;5039587;28;20460;-67
2023/06/07 04:17:19;;;;;;;8.80;8.50;;;15.80;99.90;;;;;;5035648;28;20533;-68
2023/06/07 04:19:47;;;;;;;10.27;9.77;;;15.90;99.90;;;;;;5036242;28;20527;-67
2023/06/07 04:22:15;;;;;;;9.23;8.90;;;15.90;99.90;;;;;;5040870;28;21046;-67
2023/06/07 04:24:43;;;;;;;9.40;9.00;;;15.90;99.90;;;;;;5037895;28;20939;-67
2023/06/07 04:27:13;;;;;;;12.03;11.47;;;15.90;99.90;;;;;;5036066;28;20465;-67
2023/06/07 04:29:40;;;;;;;9.67;9.37;;;16.00;99.90;;;;;;5042925;28;20452;-67
2023/06/07 04:32:11;;;;;;;9.70;9.40;;;16.00;99.90;;;;;;5042818;28;20465;-67
2023/06/07 04:34:41;;;;;;;10.47;10.07;;;16.10;99.90;;;;;;5040815;28;20533;-67
2023/06/07 04:37:08;;;;;;;9.63;9.33;;;16.10;99.90;;;;;;5044330;28;20463;-67
2023/06/07 04:39:36;;;;;;;10.40;9.90;;;16.10;99.90;;;;;;5050976;28;20475;-67
2023/06/07 04:42:05;;;;;;;9.93;9.53;;;16.20;99.90;;;;;;5037575;28;20548;-66
2023/06/07 04:44:32;;;;;;;10.70;10.30;;;16.10;99.90;;;;;;5044870;28;20478;-67
2023/06/07 04:47:01;;;;;;;10.50;10.10;;;16.20;99.90;;;;;;5049260;28;20522;-67
2023/06/07 04:49:33;;;;;;;10.70;10.30;;;16.20;99.90;;;;;;5045705;28;20537;-68
2023/06/07 04:52:01;;;;;;;11.53;11.07;;;16.20;99.90;;;;;;5038255;28;20460;-67
2023/06/07 04:54:31;;;;;;;11.90;11.40;;;16.30;99.90;;;;;;5041226;28;20618;-68
2023/06/07 04:56:58;;;;;;;11.30;10.90;;;16.30;99.90;;;;;;5047258;28;20499;-68
2023/06/07 04:59:26;;;;;;;13.30;12.70;;;16.40;99.90;;;;;;5038549;28;20911;-68
2023/06/07 05:01:54;;;;;;;11.80;11.30;;;16.50;99.90;;;;;;5039874;28;20477;-67
2023/06/07 05:04:21;;;;;;;11.90;11.37;;;16.50;99.90;;;;;;5038167;28;20464;-67
2023/06/07 05:06:50;;;;;;;11.53;11.03;;;16.50;99.90;;;;;;5036456;28;20464;-67
2023/06/07 05:09:17;;;;;;;11.53;11.07;;;16.50;99.90;;;;;;5046010;28;20464;-68
2023/06/07 05:11:44;;;;;;;11.43;11.03;;;16.60;99.90;;;;;;5034307;28;20467;-68
2023/06/07 05:14:11;;;;;;;11.10;10.70;;;16.70;99.90;;;;;;5043137;28;20495;-68
2023/06/07 05:16:38;;;;;;;11.90;11.40;;;16.60;99.90;;;;;;5042762;28;20456;-68
2023/06/07 05:19:05;;;;;;;11.87;11.40;;;16.70;99.90;;;;;;5037379;28;20473;-68
2023/06/07 05:21:32;;;;;;;11.33;10.93;;;16.80;99.90;;;;;;5038794;28;20467;-67
2023/06/07 05:24:00;;;;;;;12.23;11.73;;;16.80;99.90;;;;;;5043116;28;20464;-67
2023/06/07 05:26:27;;;;;;;12.10;11.60;;;16.90;99.90;;;;;;5044691;28;20499;-67
2023/06/07 05:28:55;;;;;;;12.00;11.50;;;16.90;99.90;;;;;;5040160;28;20468;-67
2023/06/07 05:31:26;;;;;;;12.63;12.13;;;17.00;99.90;;;;;;5041432;28;20549;-66
2023/06/07 05:33:54;;;;;;;12.00;11.50;;;17.10;99.90;;;;;;5038882;28;20487;-67
2023/06/07 05:36:22;;;;;;;11.97;11.47;;;17.10;99.90;;;;;;5042712;28;20465;-66
2023/06/07 05:38:49;;;;;;;12.00;11.50;;;17.30;99.90;;;;;;5044829;28;20835;-67
2023/06/07 05:41:18;;;;;;;11.87;11.40;;;17.30;99.90;;;;;;5039377;28;20464;-68
2023/06/07 05:43:45;;;;;;;12.70;12.20;;;17.30;99.90;;;;;;5041620;28;20460;-67
2023/06/07 05:46:12;;;;;;;15.83;14.77;;;17.30;99.90;;;;;;5048584;28;20985;-67
2023/06/07 05:48:39;;;;;;;12.50;12.00;;;17.40;99.90;;;;;;5033632;28;20460;-67
2023/06/07 05:51:06;;;;;;;14.13;13.53;;;17.40;99.90;;;;;;5044712;28;20467;-67
2023/06/07 05:53:33;;;;;;;13.93;13.33;;;17.40;99.90;;;;;;5039693;28;20574;-67
2023/06/07 05:55:59;;;;;;;12.97;12.47;;;17.60;99.90;;;;;;5042494;28;20472;-67
2023/06/07 05:58:30;;;;;;;12.73;12.23;;;17.50;99.90;;;;;;5042691;28;20467;-67
2023/06/07 06:00:59;;;;;;;12.40;11.90;;;17.60;99.90;;;;;;5037889;28;20469;-67
2023/06/07 06:03:26;;;;;;;14.20;13.60;;;17.60;99.90;;;;;;5038299;28;20502;-67
2023/06/07 06:05:54;;;;;;;13.47;12.83;;;17.60;99.90;;;;;;5040108;28;20467;-67
2023/06/07 06:08:22;;;;;;;13.87;12.80;;;17.60;99.90;;;;;;5034232;28;20496;-67
2023/06/07 06:10:50;;;;;;;13.20;12.70;;;17.90;99.90;;;;;;5041862;28;20467;-68
2023/06/07 06:13:17;;;;;;;13.70;13.10;;;18.10;99.90;;;;;;5041529;28;20503;-67
2023/06/07 06:15:45;;;;;;;14.93;14.00;;;18.40;99.90;;;;;;5038125;28;20464;-68
2023/06/07 06:18:13;;;;;;;13.37;12.77;;;18.50;99.90;;;;;;5041341;28;20886;-67
2023/06/07 06:20:40;;;;;;;13.10;12.60;;;18.60;99.90;;;;;;5041225;28;20823;-67
2023/06/07 06:23:07;;;;;;;14.93;14.23;;;18.70;99.90;;;;;;5043109;28;20468;-68
2023/06/07 06:25:36;;;;;;;15.87;14.63;;;18.70;99.90;;;;;;5036071;28;20456;-67
2023/06/07 06:28:03;;;;;;;13.70;13.10;;;18.70;99.90;;;;;;5040625;28;20495;-67
2023/06/07 06:30:30;;;;;;;12.93;12.43;;;18.70;99.90;;;;;;5037043;28;20498;-67
2023/06/07 06:33:01;;;;;;;12.70;12.20;;;18.70;99.90;;;;;;5038318;28;20488;-67
2023/06/07 06:35:28;;;;;;;15.03;13.60;;;18.70;99.90;;;;;;5041086;28;20942;-68
2023/06/07 06:37:55;;;;;;;13.80;13.10;;;18.80;99.90;;;;;;5038853;28;20971;-68
2023/06/07 06:40:22;;;;;;;15.67;14.70;;;18.80;99.90;;;;;;5041995;28;20464;-67
2023/06/07 06:42:49;;;;;;;13.03;12.53;;;18.70;99.90;;;;;;5035640;28;20993;-67
2023/06/07 06:45:16;;;;;;;13.50;13.00;;;18.60;99.90;;;;;;5039834;28;20566;-68
2023/06/07 06:47:43;;;;;;;13.90;13.30;;;18.50;99.90;;;;;;5032743;28;20465;-68
2023/06/07 06:50:13;;;;;;;13.13;12.63;;;18.40;99.90;;;;;;5024738;28;20452;-67
2023/06/07 06:52:40;;;;;;;13.57;13.00;;;18.40;99.90;;;;;;5031599;28;20583;-66
2023/06/07 06:55:07;;;;;;;14.07;13.47;;;18.50;99.90;;;;;;5035420;28;20576;-67
2023/06/07 06:57:35;;;;;;;14.97;14.07;;;18.60;99.90;;;;;;5040833;28;20467;-65
2023/06/07 07:00:04;;;;;;;14.80;13.40;;;18.40;99.90;;;;;;5033462;28;20918;-65
2023/06/07 07:02:31;;;;;;;14.57;13.77;;;18.30;99.90;;;;;;5037992;28;20769;-68
2023/06/07 07:05:00;;;;;;;13.30;12.70;;;18.10;99.90;;;;;;5039270;28;20448;-66
2023/06/07 07:07:29;;;;;;;14.27;13.57;;;18.10;99.90;;;;;;5035858;28;20482;-65
2023/06/07 07:09:56;;;;;;;14.00;13.40;;;17.90;99.90;;;;;;5028243;28;20464;-65
2023/06/07 07:12:24;;;;;;;12.37;11.87;;;17.90;99.90;;;;;;5030816;28;20881;-67
2023/06/07 07:14:50;;;;;;;15.23;14.00;;;17.90;99.90;;;;;;5032907;28;20618;-66
2023/06/07 07:17:18;;;;;;;16.13;14.43;;;18.00;99.90;;;;;;5031673;28;20461;-65
2023/06/07 07:19:45;;;;;;;12.67;12.17;;;18.10;99.90;;;;;;5035270;28;20488;-66
2023/06/07 07:22:12;;;;;;;14.83;14.13;;;18.10;99.90;;;;;;5031249;28;20734;-65
2023/06/07 07:24:41;;;;;;;18.47;16.80;;;18.10;99.90;;;;;;5033648;28;20461;-65
2023/06/07 07:27:07;;;;;;;15.07;14.37;;;18.30;99.90;;;;;;5031369;28;20663;-66
2023/06/07 07:29:34;;;;;;;12.90;12.40;;;18.40;99.90;;;;;;5033087;28;20460;-65
2023/06/07 07:32:01;;;;;;;13.60;13.00;;;18.40;99.90;;;;;;5035811;28;20826;-66
2023/06/07 07:34:28;;;;;;;13.23;12.67;;;18.50;99.90;;;;;;5033143;28;20532;-66
2023/06/07 07:36:57;;;;;;;14.10;13.50;;;18.60;99.90;;;;;;5031311;28;20473;-67
2023/06/07 07:39:26;;;;;;;18.87;15.50;;;18.70;99.90;;;;;;5030318;28;20452;-65
2023/06/07 07:41:54;;;;;;;12.93;12.40;;;18.70;99.90;;;;;;5034528;28;20752;-65
2023/06/07 07:44:21;;;;;;;13.83;13.23;;;18.70;99.90;;;;;;5029942;28;20471;-64
2023/06/07 07:46:48;;;;;;;14.20;13.43;;;18.80;99.90;;;;;;5033568;28;21153;-64
2023/06/07 07:49:15;;;;;;;14.13;13.50;;;18.90;99.90;;;;;;5035648;28;21001;-66
2023/06/07 07:51:42;;;;;;;14.83;14.13;;;19.20;99.90;;;;;;5035457;28;20951;-65
2023/06/07 07:54:09;;;;;;;14.83;13.93;;;19.40;99.90;;;;;;5031444;28;20860;-66
2023/06/07 07:56:36;;;;;;;14.50;13.43;;;19.60;99.90;;;;;;5032408;28;20487;-65
2023/06/07 07:59:04;;;;;;;14.07;13.37;;;19.70;99.90;;;;;;5035220;28;20464;-65
2023/06/07 08:01:31;;;;;;;17.20;15.90;;;19.90;99.90;;;;;;5033629;28;20461;-65
2023/06/07 08:03:59;;;;;;;16.87;15.77;;;19.90;99.90;;;;;;5033913;28;20804;-65
2023/06/07 08:06:25;;;;;;;16.47;15.37;;;19.80;99.90;;;;;;5035428;28;20535;-65
2023/06/07 08:08:52;;;;;;;17.27;16.37;;;19.90;99.90;;;;;;5037708;28;20466;-65
2023/06/07 08:11:20;;;;;;;19.10;18.00;;;19.70;99.90;;;;;;5035327;28;20471;-66
2023/06/07 08:13:49;;;;;;;18.30;17.30;;;19.40;99.90;;;;;;5041907;28;20498;-67
2023/06/07 08:16:17;;;;;;;17.87;16.97;;;19.30;99.90;;;;;;5034945;28;20571;-67
2023/06/07 08:18:49;;;;;;;18.57;17.57;;;19.20;99.90;;;;;;5036228;28;20559;-67
2023/06/07 08:21:15;;;;;;;16.20;15.40;;;19.10;99.90;;;;;;5037257;28;20492;-67
2023/06/07 08:23:44;;;;;;;15.37;14.53;;;19.00;99.90;;;;;;5041084;28;20459;-66
2023/06/07 08:26:11;;;;;;;14.67;13.77;;;18.80;99.90;;;;;;5033841;28;20494;-65
2023/06/07 08:28:39;;;;;;;14.40;13.70;;;18.60;99.90;;;;;;5034876;28;20451;-66
2023/06/07 08:31:06;;;;;;;17.87;16.60;;;18.70;99.90;;;;;;5037651;28;20990;-67
2023/06/07 08:33:34;;;;;;;13.80;13.10;;;18.70;99.90;;;;;;5032544;28;20465;-66
2023/06/07 08:36:01;;;;;;;44.53;14.90;;;18.70;99.90;;;;;;5038149;28;20823;-66
2023/06/07 08:38:28;;;;;;;14.30;13.70;;;18.70;99.90;;;;;;5042695;28;20483;-66
2023/06/07 08:40:56;;;;;;;14.67;13.90;;;18.70;99.90;;;;;;5033734;28;20465;-66
2023/06/07 08:43:25;;;;;;;27.03;17.00;;;18.80;99.90;;;;;;5034158;28;20525;-67
2023/06/07 08:45:52;;;;;;;13.27;12.67;;;18.80;99.90;;;;;;5037162;28;20457;-66
2023/06/07 08:48:21;;;;;;;14.73;14.03;;;18.60;99.90;;;;;;5043611;28;20963;-67
2023/06/07 08:50:52;;;;;;;17.33;15.03;;;18.70;99.90;;;;;;5035738;28;21158;-68
2023/06/07 08:53:27;;;;;;;15.00;14.20;;;18.40;99.90;;;;;;5037051;28;20541;-67
2023/06/07 08:55:55;;;;;;;15.43;13.87;;;18.30;99.90;;;;;;5034913;28;20459;-66
2023/06/07 08:58:24;;;;;;;13.80;13.20;;;18.30;99.90;;;;;;5036422;28;20452;-67
2023/06/07 09:00:53;;;;;;;13.70;13.10;;;18.30;99.90;;;;;;5040250;28;20469;-65
2023/06/07 09:03:20;;;;;;;15.53;14.63;;;18.10;99.90;;;;;;5036518;28;20471;-66
2023/06/07 09:05:53;;;;;;;21.63;13.90;;;18.10;99.90;;;;;;5041607;28;20460;-66
2023/06/07 09:08:21;;;;;;;14.67;13.97;;;18.10;99.90;;;;;;5035018;28;20866;-66
2023/06/07 09:10:49;;;;;;;14.00;13.40;;;18.10;99.90;;;;;;5034720;28;20851;-65
2023/06/07 09:13:19;;;;;;;14.33;13.73;;;18.10;99.90;;;;;;5042875;28;20529;-67
2023/06/07 09:15:49;;;;;;;15.20;14.40;;;18.10;99.90;;;;;;5031534;28;20488;-66
2023/06/07 09:18:17;;;;;;;15.37;14.50;;;18.20;99.90;;;;;;5033350;28;20559;-66
2023/06/07 09:20:44;;;;;;;13.70;13.10;;;18.20;99.90;;;;;;5038645;28;20499;-66
2023/06/07 09:23:16;;;;;;;13.53;12.93;;;18.50;99.90;;;;;;5032005;28;20469;-66
2023/06/07 09:25:44;;;;;;;15.63;14.73;;;18.60;99.90;;;;;;5032196;28;20472;-66
2023/06/07 09:28:13;;;;;;;13.30;12.73;;;18.80;99.90;;;;;;5037146;28;20604;-67
2023/06/07 09:30:54;;;;;;;15.00;14.27;;;19.00;99.90;;;;;;5036137;28;20561;-67
2023/06/07 09:33:29;;;;;;;15.83;14.50;;;18.80;99.90;;;;;;5035003;28;20467;-67
2023/06/07 09:36:06;;;;;;;13.50;12.97;;;18.90;99.90;;;;;;5033872;28;20532;-66
2023/06/07 09:38:35;;;;;;;16.17;15.27;;;18.90;99.90;;;;;;5032332;28;20457;-67
2023/06/07 09:41:03;;;;;;;16.87;14.90;;;19.00;99.90;;;;;;5040943;28;20522;-67
2023/06/07 09:43:42;;;;;;;18.53;17.13;;;19.00;99.90;;;;;;5038778;28;20463;-66
2023/06/07 09:46:10;;;;;;;38.87;17.50;;;19.20;99.90;;;;;;5034820;28;20468;-65
2023/06/07 09:48:50;;;;;;;17.20;16.30;;;18.80;99.90;;;;;;5037583;28;20464;-67
2023/06/07 09:51:19;;;;;;;19.07;17.60;;;18.40;99.90;;;;;;5035717;28;20556;-67
2023/06/07 09:53:56;;;;;;;15.90;15.10;;;18.20;99.90;;;;;;5041181;28;20492;-67
2023/06/07 09:56:24;;;;;;;15.77;14.83;;;18.00;99.90;;;;;;5029568;28;20497;-66
2023/06/07 09:59:07;;;;;;;14.23;13.63;;;17.90;99.90;;;;;;5034449;28;20460;-67
2023/06/07 10:01:51;;;;;;;17.20;15.90;;;17.70;99.90;;;;;;5034224;28;20602;-66
2023/06/07 10:04:18;;;;;;;14.30;13.67;;;17.50;99.90;;;;;;5036522;28;20449;-67
2023/06/07 10:06:47;;;;;;;11.20;10.77;;;17.20;99.90;;;;;;5035125;28;20459;-66
2023/06/07 10:09:18;;;;;;;11.33;10.83;;;17.20;99.90;;;;;;5032755;28;20467;-68
2023/06/07 10:11:48;;;;;;;10.23;9.43;;;17.10;99.90;;;;;;5040841;28;20468;-67
2023/06/07 10:14:19;;;;;;;9.37;8.77;;;17.10;99.90;;;;;;5034277;28;20557;-67
2023/06/07 10:16:52;;;;;;;8.70;8.30;;;17.00;99.90;;;;;;5029474;28;20534;-67
2023/06/07 10:19:26;;;;;;;10.00;9.50;;;16.80;99.90;;;;;;5033310;28;20460;-67
2023/06/07 10:21:56;;;;;;;11.33;10.70;;;16.90;99.90;;;;;;5036957;28;20487;-68
2023/06/07 10:24:29;;;;;;;9.73;9.30;;;17.00;99.90;;;;;;5033871;28;20472;-68
2023/06/07 10:27:05;;;;;;;9.83;9.27;;;16.90;99.90;;;;;;5041256;28;21039;-67
2023/06/07 10:29:42;;;;;;;9.70;9.30;;;17.00;99.90;;;;;;5034663;28;20464;-68
2023/06/07 10:32:14;;;;;;;15.80;14.17;;;17.10;99.90;;;;;;5039260;28;21074;-67
2023/06/07 10:34:42;;;;;;;15.43;14.30;;;17.10;99.90;;;;;;5036757;28;20491;-67
2023/06/07 10:37:10;;;;;;;11.07;10.60;;;16.90;99.90;;;;;;5036136;28;20981;-67
2023/06/07 10:39:39;;;;;;;11.70;11.10;;;16.80;99.90;;;;;;5042063;28;20440;-66
2023/06/07 10:42:06;;;;;;;8.60;8.20;;;16.70;99.90;;;;;;5037559;28;20464;-67
2023/06/07 10:44:34;;;;;;;10.33;9.50;;;16.60;99.90;;;;;;5036102;28;20471;-68
2023/06/07 10:47:29;;;;;;;11.23;10.43;;;16.70;99.90;;;;;;5033620;28;20464;-68
2023/06/07 10:49:56;;;;;;;9.00;8.30;;;16.50;99.90;;;;;;5035386;28;20499;-67
2023/06/07 10:52:26;;;;;;;13.53;11.23;;;16.50;99.90;;;;;;5039060;28;20525;-68
2023/06/07 10:54:55;;;;;;;8.50;8.07;;;16.50;99.90;;;;;;5036028;28;20553;-68
2023/06/07 10:57:33;;;;;;;9.40;8.80;;;16.50;99.90;;;;;;5037937;28;20492;-69
2023/06/07 11:00:33;;;;;;;15.27;12.57;;;16.50;99.90;;;;;;5033516;28;20546;-68
2023/06/07 11:03:40;;;;;;;10.00;9.03;;;16.60;99.90;;;;;;5036417;28;20467;-67
2023/06/07 11:06:09;;;;;;;10.97;10.00;;;16.70;99.90;;;;;;5037761;28;20455;-68
2023/06/07 11:08:37;;;;;;;10.53;9.80;;;16.70;99.90;;;;;;5031899;28;20465;-67
2023/06/07 11:11:53;;;;;;;13.30;12.33;;;17.00;99.90;;;;;;5035151;28;20819;-67
2023/06/07 11:14:21;;;;;;;12.00;11.40;;;17.00;99.90;;;;;;5037455;28;20467;-67
2023/06/07 11:16:48;;;;;;;13.93;12.53;;;17.30;99.90;;;;;;5032685;28;20855;-68
2023/06/07 11:19:18;;;;;;;10.17;9.57;;;17.40;99.90;;;;;;5036664;28;20976;-68
2023/06/07 11:22:10;;;;;;;13.70;12.90;;;17.30;99.90;;;;;;5034737;28;20470;-68
2023/06/07 11:24:37;;;;;;;22.23;13.90;;;17.40;99.90;;;;;;5032842;28;20475;-68
2023/06/07 11:27:10;;;;;;;11.27;10.67;;;17.50;99.90;;;;;;5031481;28;21601;-67
2023/06/07 11:29:40;;;;;;;11.90;10.80;;;17.70;99.90;;;;;;5034164;28;20575;-68
2023/06/07 11:32:10;;;;;;;16.87;15.43;;;17.60;99.90;;;;;;5033508;28;20522;-68
2023/06/07 11:34:37;;;;;;;11.13;10.57;;;17.50;99.90;;;;;;5032176;28;20480;-67
2023/06/07 11:37:13;;;;;;;13.90;12.77;;;17.60;99.90;;;;;;5037430;28;20628;-67
2023/06/07 11:39:40;;;;;;;11.70;11.20;;;17.80;99.90;;;;;;5029735;28;21008;-68
2023/06/07 11:42:09;;;;;;;12.67;11.80;;;17.90;99.90;;;;;;5030746;28;20456;-68
2023/06/07 11:44:37;;;;;;;15.60;14.50;;;18.00;99.90;;;;;;5044765;28;20470;-69
2023/06/07 11:47:06;;;;;;;13.50;12.60;;;18.20;99.90;;;;;;5043203;28;20456;-68
2023/06/07 11:49:35;;;;;;;15.63;14.30;;;18.30;99.90;;;;;;5037773;28;20996;-68
2023/06/07 11:52:02;;;;;;;15.17;14.17;;;18.40;99.90;;;;;;5037505;28;20485;-67
2023/06/07 11:54:30;;;;;;;16.93;15.73;;;18.70;99.90;;;;;;5033776;28;20471;-67
2023/06/07 11:56:58;;;;;;;17.17;16.07;;;18.90;99.90;;;;;;5039932;28;20820;-67
2023/06/07 11:59:28;;;;;;;13.43;12.83;;;19.00;99.90;;;;;;5038606;28;20541;-67
2023/06/07 12:01:55;;;;;;;16.77;15.43;;;19.20;99.90;;;;;;5038185;28;20475;-67
2023/06/07 12:04:24;;;;;;;18.20;17.00;;;19.40;99.90;;;;;;5037943;28;20835;-67
2023/06/07 12:06:51;;;;;;;15.77;14.87;;;19.50;99.90;;;;;;5040022;28;20465;-67
2023/06/07 12:09:19;;;;;;;17.00;15.80;;;20.00;99.90;;;;;;5041266;28;20495;-68
2023/06/07 12:11:47;;;;;;;17.83;16.33;;;20.20;99.90;;;;;;5041202;28;21024;-67
2023/06/07 12:17:10;;;;;;;15.70;14.80;;;21.50;99.90;;;;;;5061404;27;2126932;-68
2023/06/07 12:19:38;;;;;;;17.23;16.23;;;22.40;99.90;;;;;;5113924;27;20804;-68
2023/06/07 12:22:07;;;;;;;17.50;16.50;;;23.00;99.90;;;;;;5119730;27;20463;-68
2023/06/07 12:24:39;;;;;;;18.93;15.33;;;23.20;99.90;;;;;;5114513;27;20461;-68
2023/06/07 12:27:13;;;;;;;17.50;16.30;;;23.60;99.90;;;;;;5114952;27;20481;-69
2023/06/07 12:29:40;;;;;;;13.80;13.20;;;23.70;99.90;;;;;;5127081;27;20496;-68
2023/06/07 12:32:10;;;;;;;18.50;17.00;;;24.00;99.90;;;;;;5124618;27;20757;-68
2023/06/07 12:34:44;;;;;;;15.83;14.70;;;24.20;99.90;;;;;;5107088;27;20511;-69
2023/06/07 12:37:11;;;;;;;19.23;17.50;;;24.20;99.90;;;;;;5117905;27;20461;-68
2023/06/07 12:39:38;;;;;;;15.67;14.43;;;24.40;99.90;;;;;;5120628;27;20460;-68
2023/06/07 12:42:06;;;;;;;14.20;13.50;;;23.60;99.90;;;;;;5114125;27;20460;-68